Time;durP1;ratioP1;P1;durP2;ratioP2;P2;SDS_P1;SDS_P2;PMS_P1;PMS_P2;Temp;Humidity;BMP_temperature;BMP_pressure;BME280_temperature;BME280_humidity;BME280_pressure;Samples;Min_cycle;Max_cycle;Signal;HPM_P1;HPM_P2
2022/04/10 00:00:37;;;;;;;1.90;1.00;;;4.00;78.30;;;;;;6287890;28;20220;-52
2022/04/10 00:03:38;;;;;;;2.23;1.13;;;3.90;77.30;;;;;;6288083;28;20192;-51
2022/04/10 00:06:39;;;;;;;1.23;1.07;;;3.90;78.20;;;;;;6288320;28;20192;-51
2022/04/10 00:09:39;;;;;;;0.83;0.73;;;3.90;78.00;;;;;;6301511;28;20227;-51
2022/04/10 00:12:40;;;;;;;1.43;0.93;;;3.90;76.40;;;;;;6275945;28;20193;-50
2022/04/10 00:15:42;;;;;;;2.00;1.10;;;4.00;78.10;;;;;;6269770;28;20219;-52
2022/04/10 00:18:42;;;;;;;0.97;0.80;;;3.90;74.50;;;;;;6270583;28;20234;-50
2022/04/10 00:21:45;;;;;;;1.97;1.00;;;4.00;75.20;;;;;;6278129;28;20224;-52
2022/04/10 00:24:46;;;;;;;2.57;1.37;;;4.00;77.10;;;;;;6278740;28;20219;-49
2022/04/10 00:27:47;;;;;;;1.13;0.90;;;3.90;77.30;;;;;;6272603;28;20196;-52
2022/04/10 00:30:49;;;;;;;1.30;0.90;;;3.90;74.20;;;;;;6303575;28;20234;-49
2022/04/10 00:33:49;;;;;;;2.30;1.00;;;4.00;74.60;;;;;;6303469;28;20543;-50
2022/04/10 00:36:50;;;;;;;1.37;0.93;;;4.00;73.90;;;;;;6270006;28;20198;-48
2022/04/10 00:39:51;;;;;;;1.63;0.90;;;4.10;76.00;;;;;;6287552;28;20224;-51
2022/04/10 00:42:52;;;;;;;1.73;1.03;;;4.10;76.70;;;;;;6286135;28;20199;-54
2022/04/10 00:45:55;;;;;;;1.00;0.90;;;4.20;77.20;;;;;;6264479;28;20184;-51
2022/04/10 00:48:55;;;;;;;0.80;0.80;;;4.20;77.60;;;;;;6262046;28;20189;-52
2022/04/10 00:51:59;;;;;;;2.47;1.03;;;4.20;76.60;;;;;;6261739;28;20719;-51
2022/04/10 00:55:00;;;;;;;1.17;0.93;;;4.20;75.90;;;;;;6267985;28;20209;-53
2022/04/10 00:58:01;;;;;;;0.83;0.70;;;4.20;75.50;;;;;;6277661;28;20193;-53
2022/04/10 01:01:02;;;;;;;1.70;1.00;;;4.20;76.70;;;;;;6284394;28;20229;-52
2022/04/10 01:04:05;;;;;;;3.03;1.23;;;4.10;77.30;;;;;;6291158;28;20219;-53
2022/04/10 01:07:07;;;;;;;1.03;0.83;;;4.10;76.80;;;;;;6283791;28;20193;-52
2022/04/10 01:10:11;;;;;;;1.70;1.60;;;4.00;77.40;;;;;;6304924;28;20533;-52
2022/04/10 01:13:13;;;;;;;1.37;0.80;;;3.90;76.90;;;;;;6289492;28;20210;-53
2022/04/10 01:16:15;;;;;;;1.07;0.80;;;3.90;76.00;;;;;;6292015;28;20188;-52
2022/04/10 01:19:17;;;;;;;1.40;0.80;;;3.90;76.00;;;;;;6282337;28;20235;-53
2022/04/10 01:22:32;;;;;;;1.37;0.77;;;3.90;74.30;;;;;;6283844;28;20258;-51
2022/04/10 01:25:34;;;;;;;2.03;0.90;;;3.80;74.70;;;;;;6266936;28;20240;-51
2022/04/10 01:28:35;;;;;;;2.03;1.47;;;3.80;72.80;;;;;;6267075;28;20244;-53
2022/04/10 01:31:38;;;;;;;1.00;0.70;;;3.80;74.20;;;;;;6268889;28;20600;-54
2022/04/10 01:34:41;;;;;;;1.80;0.90;;;3.90;74.80;;;;;;6290841;28;20188;-51
2022/04/10 01:37:43;;;;;;;1.57;0.87;;;3.90;66.90;;;;;;6278977;28;20193;-51
2022/04/10 01:40:48;;;;;;;1.70;0.90;;;4.00;67.70;;;;;;6282820;28;20190;-54
2022/04/10 01:43:49;;;;;;;1.67;0.83;;;4.10;68.50;;;;;;6281688;28;20193;-54
2022/04/10 01:46:50;;;;;;;0.80;0.80;;;4.20;71.10;;;;;;6282469;28;20193;-49
2022/04/10 01:49:51;;;;;;;0.70;0.70;;;4.30;68.70;;;;;;6274381;28;20218;-50
2022/04/10 01:52:52;;;;;;;1.77;0.90;;;4.40;71.80;;;;;;6262449;28;20188;-51
2022/04/10 01:55:55;;;;;;;1.10;0.80;;;4.50;72.10;;;;;;6285080;28;20216;-52
2022/04/10 01:58:56;;;;;;;4.17;1.40;;;4.60;71.50;;;;;;6289432;28;20192;-54
2022/04/10 02:01:57;;;;;;;2.77;0.80;;;4.60;65.00;;;;;;6271107;28;20180;-50
2022/04/10 02:04:58;;;;;;;1.90;0.93;;;4.70;64.60;;;;;;6263882;28;20212;-50
2022/04/10 02:07:59;;;;;;;1.13;0.90;;;4.80;65.80;;;;;;6268444;28;20199;-49
2022/04/10 02:11:00;;;;;;;0.77;0.70;;;4.80;67.90;;;;;;6264462;28;20289;-50
2022/04/10 02:14:01;;;;;;;0.70;0.47;;;4.90;65.10;;;;;;6281380;28;20188;-51
2022/04/10 02:17:03;;;;;;;1.70;1.00;;;4.90;68.90;;;;;;6290731;28;20282;-50
2022/04/10 02:20:04;;;;;;;0.60;0.60;;;4.90;59.40;;;;;;6288501;28;20198;-53
2022/04/10 02:23:06;;;;;;;0.80;0.80;;;5.00;58.60;;;;;;6264672;28;20193;-54
2022/04/10 02:26:09;;;;;;;0.70;0.70;;;5.00;59.90;;;;;;6301514;28;20188;-51
2022/04/10 02:29:10;;;;;;;1.47;0.73;;;5.00;68.10;;;;;;6283354;28;20251;-52
2022/04/10 02:32:11;;;;;;;0.60;0.60;;;5.00;64.40;;;;;;6264836;28;20216;-51
2022/04/10 02:35:12;;;;;;;2.07;0.70;;;5.00;65.30;;;;;;6272071;28;20188;-53
2022/04/10 02:38:13;;;;;;;1.47;0.87;;;5.00;69.90;;;;;;6271208;28;20249;-48
2022/04/10 02:41:15;;;;;;;2.00;0.70;;;4.90;66.90;;;;;;6272489;28;20192;-51
2022/04/10 02:44:16;;;;;;;0.60;0.60;;;4.90;63.80;;;;;;6264498;28;20200;-50
2022/04/10 02:47:17;;;;;;;1.07;0.60;;;4.90;64.40;;;;;;6269852;28;20207;-55
2022/04/10 02:50:18;;;;;;;1.53;0.83;;;4.80;65.70;;;;;;6280576;28;20220;-51
2022/04/10 02:53:19;;;;;;;0.70;0.43;;;4.80;64.40;;;;;;6306901;28;20258;-54
2022/04/10 02:56:20;;;;;;;1.03;0.70;;;4.90;69.90;;;;;;6290151;28;20177;-52
2022/04/10 02:59:21;;;;;;;1.10;0.50;;;4.80;70.50;;;;;;6306189;28;20218;-50
2022/04/10 03:02:22;;;;;;;0.60;0.60;;;4.80;68.70;;;;;;6304835;28;20189;-50
2022/04/10 03:05:23;;;;;;;1.43;0.80;;;4.70;66.40;;;;;;6289641;28;20216;-52
2022/04/10 03:08:24;;;;;;;0.60;0.60;;;4.70;68.70;;;;;;6289322;28;20241;-50
2022/04/10 03:11:26;;;;;;;0.77;0.70;;;4.70;67.90;;;;;;6281418;28;20215;-53
2022/04/10 03:14:28;;;;;;;0.83;0.70;;;4.70;67.80;;;;;;6284741;28;20187;-50
2022/04/10 03:17:29;;;;;;;1.40;0.97;;;4.70;71.40;;;;;;6289671;28;20211;-50
2022/04/10 03:20:32;;;;;;;0.70;0.70;;;4.70;72.30;;;;;;6289106;28;20194;-54
2022/04/10 03:23:33;;;;;;;1.40;0.60;;;4.60;72.70;;;;;;6272206;28;20184;-53
2022/04/10 03:26:34;;;;;;;1.53;0.67;;;4.60;73.80;;;;;;6268308;28;20219;-52
2022/04/10 03:29:36;;;;;;;2.10;1.03;;;4.60;70.50;;;;;;6282572;28;20236;-53
2022/04/10 03:32:37;;;;;;;2.33;1.00;;;4.50;71.30;;;;;;6288174;28;20188;-52
2022/04/10 03:35:38;;;;;;;0.97;0.70;;;4.40;67.30;;;;;;6267482;28;20227;-52
2022/04/10 03:38:42;;;;;;;0.93;0.60;;;4.30;67.70;;;;;;6281219;28;20240;-49
2022/04/10 03:41:43;;;;;;;1.17;0.80;;;4.30;71.40;;;;;;6311517;28;20193;-51
2022/04/10 03:44:45;;;;;;;1.67;0.80;;;4.30;68.10;;;;;;6304765;28;20168;-53
2022/04/10 03:47:47;;;;;;;0.60;0.60;;;4.30;71.70;;;;;;6286026;28;20187;-49
2022/04/10 03:50:48;;;;;;;0.47;0.47;;;4.30;73.70;;;;;;6282093;28;20578;-48
2022/04/10 03:53:51;;;;;;;0.70;0.70;;;4.30;73.70;;;;;;6268134;28;20187;-54
2022/04/10 03:56:54;;;;;;;0.73;0.63;;;4.30;73.10;;;;;;6279292;28;20189;-51
2022/04/10 03:59:56;;;;;;;0.73;0.73;;;4.30;74.30;;;;;;6287835;28;20195;-53
2022/04/10 04:02:58;;;;;;;1.40;1.10;;;4.20;73.90;;;;;;6272765;28;20192;-54
2022/04/10 04:06:02;;;;;;;0.77;0.77;;;4.10;73.80;;;;;;6262139;28;20213;-55
2022/04/10 04:09:04;;;;;;;1.13;0.90;;;4.10;74.70;;;;;;6263121;28;20190;-53
2022/04/10 04:12:06;;;;;;;1.47;0.70;;;4.00;73.40;;;;;;6280187;28;20241;-50
2022/04/10 04:15:07;;;;;;;1.70;1.00;;;4.00;75.20;;;;;;6247269;28;20189;-53
2022/04/10 04:18:09;;;;;;;1.13;0.70;;;3.90;68.80;;;;;;6247137;28;20218;-54
2022/04/10 04:21:10;;;;;;;0.87;0.80;;;3.90;73.80;;;;;;6264041;28;20186;-52
2022/04/10 04:24:16;;;;;;;0.70;0.70;;;3.90;74.50;;;;;;6247059;28;20204;-52
2022/04/10 04:27:17;;;;;;;2.53;0.67;;;3.90;74.70;;;;;;6229452;28;20204;-50
2022/04/10 04:30:19;;;;;;;1.10;1.00;;;3.80;73.70;;;;;;6261356;28;20256;-52
2022/04/10 04:33:21;;;;;;;1.37;0.90;;;3.80;74.40;;;;;;6261370;28;20193;-52
2022/04/10 04:36:23;;;;;;;1.23;0.80;;;3.80;74.00;;;;;;6278993;28;20206;-52
2022/04/10 04:39:24;;;;;;;1.10;0.80;;;3.80;74.30;;;;;;6266358;28;20225;-50
2022/04/10 04:42:25;;;;;;;0.70;0.70;;;3.80;75.10;;;;;;6302222;28;20191;-49
2022/04/10 04:45:25;;;;;;;1.03;0.93;;;3.80;74.70;;;;;;6269634;28;20279;-54
2022/04/10 04:48:34;;;;;;;6.10;3.07;;;3.80;75.20;;;;;;6263507;28;20185;-52
2022/04/10 04:51:36;;;;;;;4.00;2.47;;;3.80;73.90;;;;;;6262605;28;20216;-52
2022/04/10 04:54:38;;;;;;;4.10;2.47;;;3.80;73.40;;;;;;6262671;28;20281;-53
2022/04/10 04:57:39;;;;;;;4.70;2.60;;;3.80;75.60;;;;;;6285475;28;20196;-51
2022/04/10 05:00:42;;;;;;;4.03;2.50;;;3.80;76.30;;;;;;6281767;28;20234;-49
2022/04/10 05:03:42;;;;;;;5.50;2.50;;;3.80;76.00;;;;;;6278657;28;20197;-54
2022/04/10 05:06:44;;;;;;;2.93;2.10;;;3.70;76.10;;;;;;6278562;28;20184;-51
2022/04/10 05:09:45;;;;;;;3.47;1.90;;;3.70;74.50;;;;;;6275225;28;20199;-54
2022/04/10 05:12:48;;;;;;;3.80;1.53;;;3.80;74.60;;;;;;6287510;28;20257;-48
2022/04/10 05:15:51;;;;;;;2.80;1.50;;;3.80;75.30;;;;;;6272866;28;20190;-49
2022/04/10 05:18:54;;;;;;;2.93;1.70;;;3.80;76.10;;;;;;6269939;28;20189;-52
2022/04/10 05:21:59;;;;;;;1.47;1.10;;;3.80;76.00;;;;;;6279525;28;20202;-53
2022/04/10 05:25:00;;;;;;;3.43;1.10;;;3.80;76.50;;;;;;6262617;28;20224;-50
2022/04/10 05:28:01;;;;;;;1.00;0.90;;;3.80;76.30;;;;;;6277602;28;20185;-52
2022/04/10 05:31:03;;;;;;;1.83;1.27;;;3.80;78.10;;;;;;6278971;28;20243;-53
2022/04/10 05:34:09;;;;;;;2.53;0.90;;;3.80;77.30;;;;;;6278703;28;20186;-51
2022/04/10 05:37:10;;;;;;;1.93;1.10;;;3.80;77.30;;;;;;6261605;28;20188;-52
2022/04/10 05:40:16;;;;;;;1.00;0.83;;;3.90;77.80;;;;;;6273685;28;20253;-52
2022/04/10 05:43:21;;;;;;;0.93;0.87;;;3.90;77.60;;;;;;6286070;28;20188;-53
2022/04/10 05:46:22;;;;;;;1.80;1.23;;;3.90;78.50;;;;;;6278017;28;20185;-51
2022/04/10 05:49:30;;;;;;;1.30;1.07;;;4.00;77.10;;;;;;6283772;28;20181;-52
2022/04/10 05:52:38;;;;;;;1.20;0.90;;;4.00;76.60;;;;;;6294663;28;20220;-51
2022/04/10 05:55:39;;;;;;;1.40;0.93;;;4.10;78.40;;;;;;6281723;28;20234;-54
2022/04/10 05:58:45;;;;;;;3.40;1.43;;;4.10;78.40;;;;;;6295921;28;20196;-49
2022/04/10 06:01:46;;;;;;;1.90;0.97;;;4.20;77.80;;;;;;6274457;28;20185;-51
2022/04/10 06:04:47;;;;;;;1.13;1.00;;;4.30;78.80;;;;;;6274085;28;20222;-51
2022/04/10 06:07:50;;;;;;;2.10;1.00;;;4.30;68.30;;;;;;6249332;28;20181;-51
2022/04/10 06:10:51;;;;;;;1.93;0.90;;;4.50;73.90;;;;;;6264784;28;20233;-54
2022/04/10 06:13:53;;;;;;;1.80;1.23;;;4.50;76.00;;;;;;6265731;28;20191;-53
2022/04/10 06:16:59;;;;;;;1.07;0.90;;;4.80;63.40;;;;;;6281594;28;20177;-49
2022/04/10 06:20:04;;;;;;;2.00;1.10;;;5.00;58.70;;;;;;6269787;28;20188;-49
2022/04/10 06:23:07;;;;;;;2.00;0.90;;;5.10;65.20;;;;;;6281238;28;20181;-53
2022/04/10 06:26:09;;;;;;;2.57;1.10;;;5.30;71.10;;;;;;6266373;28;20283;-53
2022/04/10 06:29:10;;;;;;;2.37;1.30;;;5.30;66.40;;;;;;6280589;28;20261;-53
2022/04/10 06:32:21;;;;;;;1.43;1.03;;;5.40;58.30;;;;;;6292883;28;20330;-55
2022/04/10 06:35:22;;;;;;;4.30;1.00;;;5.70;61.20;;;;;;6256843;28;20198;-50
2022/04/10 06:38:25;;;;;;;0.97;0.90;;;5.70;58.20;;;;;;6282548;28;20299;-50
2022/04/10 06:41:37;;;;;;;5.20;0.97;;;5.90;57.50;;;;;;6282580;28;20284;-52
2022/04/10 06:44:44;;;;;;;0.87;0.80;;;6.00;51.80;;;;;;6284013;28;20202;-55
2022/04/10 06:47:51;;;;;;;1.03;0.93;;;6.30;54.00;;;;;;6274237;28;20231;-54
2022/04/10 06:50:52;;;;;;;0.77;0.73;;;6.30;51.70;;;;;;6274471;28;20213;-53
2022/04/10 06:54:00;;;;;;;1.43;0.80;;;6.50;52.00;;;;;;6266654;28;20189;-51
2022/04/10 06:57:01;;;;;;;0.90;0.90;;;6.60;52.90;;;;;;6265627;28;20196;-55
2022/04/10 07:00:02;;;;;;;1.30;0.77;;;6.60;51.40;;;;;;6305294;28;20226;-53
2022/04/10 07:03:07;;;;;;;0.60;0.60;;;6.60;51.70;;;;;;6315660;28;20191;-54
2022/04/10 07:06:10;;;;;;;1.50;0.83;;;6.70;57.30;;;;;;6300918;28;20191;-50
2022/04/10 07:09:12;;;;;;;0.70;0.70;;;6.70;54.20;;;;;;6289392;28;20187;-52
2022/04/10 07:12:13;;;;;;;0.47;0.47;;;6.70;54.20;;;;;;6304741;28;20212;-52
2022/04/10 07:15:19;;;;;;;0.70;0.70;;;6.70;58.30;;;;;;6289818;28;20214;-51
2022/04/10 07:18:21;;;;;;;2.23;0.80;;;6.70;60.30;;;;;;6279701;28;20555;-53
2022/04/10 07:24:42;;;;;;;1.63;1.00;;;6.80;50.30;;;;;;6299839;28;20276;-55
2022/04/10 07:27:43;;;;;;;0.87;0.60;;;6.90;50.70;;;;;;6266108;28;20219;-51
2022/04/10 07:30:59;;;;;;;0.90;0.67;;;7.00;53.20;;;;;;6283077;28;20245;-54
2022/04/10 07:34:04;;;;;;;1.43;0.90;;;7.10;52.00;;;;;;6280486;28;20190;-53
2022/04/10 07:37:31;;;;;;;1.20;0.80;;;7.10;49.90;;;;;;6268095;28;20238;-55
2022/04/10 07:40:34;;;;;;;1.67;0.67;;;7.20;48.00;;;;;;6279990;28;20687;-52
2022/04/10 07:43:35;;;;;;;1.43;0.90;;;7.30;47.50;;;;;;6288978;28;20195;-52
2022/04/10 07:49:56;;;;;;;1.13;0.80;;;7.40;51.80;;;;;;6307467;28;20283;-52
2022/04/10 07:52:57;;;;;;;0.87;0.60;;;7.50;56.90;;;;;;6288466;28;20594;-53
2022/04/10 07:56:01;;;;;;;0.70;0.70;;;7.50;49.80;;;;;;6289338;28;20185;-50
2022/04/10 07:59:01;;;;;;;1.57;0.47;;;7.70;49.50;;;;;;6276193;28;20329;-53
2022/04/10 08:02:08;;;;;;;1.63;0.63;;;7.70;49.70;;;;;;6273271;28;20207;-53
2022/04/10 08:05:11;;;;;;;1.83;0.80;;;7.70;51.40;;;;;;6272352;28;20184;-54
2022/04/10 08:08:33;;;;;;;2.30;0.83;;;7.80;48.50;;;;;;6281078;28;20243;-53
2022/04/10 08:11:34;;;;;;;0.83;0.80;;;7.80;46.30;;;;;;6295702;28;20212;-49
2022/04/10 08:14:35;;;;;;;1.40;0.83;;;7.90;44.10;;;;;;6266623;28;20287;-52
2022/04/10 08:17:36;;;;;;;0.70;0.70;;;7.80;42.50;;;;;;6280083;28;20188;-53
2022/04/10 08:20:37;;;;;;;1.23;0.83;;;7.90;45.00;;;;;;6283611;28;20196;-53
2022/04/10 08:23:38;;;;;;;1.00;0.83;;;7.90;47.40;;;;;;6288820;28;20191;-52
2022/04/10 08:26:39;;;;;;;1.90;0.80;;;8.00;42.20;;;;;;6288600;28;20246;-53
2022/04/10 08:29:40;;;;;;;0.80;0.80;;;8.10;42.30;;;;;;6270664;28;20232;-50
2022/04/10 08:32:43;;;;;;;0.90;0.90;;;8.20;44.40;;;;;;6271060;28;20228;-53
2022/04/10 08:35:44;;;;;;;1.47;0.87;;;8.30;47.30;;;;;;6303180;28;20193;-53
2022/04/10 08:38:45;;;;;;;2.47;1.00;;;8.30;44.80;;;;;;6286495;28;20191;-53
2022/04/10 08:41:47;;;;;;;0.83;0.83;;;8.40;40.80;;;;;;6268763;28;20193;-50
2022/04/10 08:44:49;;;;;;;1.20;1.00;;;8.50;42.00;;;;;;6263731;28;20225;-52
2022/04/10 08:47:50;;;;;;;1.80;1.07;;;8.50;42.50;;;;;;6262932;28;20218;-53
2022/04/10 08:50:51;;;;;;;1.30;1.00;;;8.60;43.80;;;;;;6278604;28;20266;-52
2022/04/10 08:53:54;;;;;;;1.10;0.90;;;8.50;42.10;;;;;;6261944;28;20193;-50
2022/04/10 08:56:57;;;;;;;2.43;1.00;;;8.60;41.20;;;;;;6283376;28;20191;-55
2022/04/10 08:59:58;;;;;;;1.13;0.77;;;8.70;41.20;;;;;;6287060;28;20180;-54
2022/04/10 09:02:59;;;;;;;1.53;0.93;;;8.80;38.20;;;;;;6269516;28;20659;-55
2022/04/10 09:06:10;;;;;;;1.60;1.00;;;8.80;38.80;;;;;;6286584;28;20180;-53
2022/04/10 09:09:17;;;;;;;1.13;1.00;;;8.90;38.90;;;;;;6270667;28;20193;-55
2022/04/10 09:12:18;;;;;;;1.93;1.20;;;8.90;37.90;;;;;;6293026;28;20227;-54
2022/04/10 09:15:30;;;;;;;1.03;0.93;;;9.00;38.30;;;;;;6287567;28;20289;-55
2022/04/10 09:19:03;;;;;;;1.23;1.10;;;9.20;40.40;;;;;;6290275;28;20193;-54
2022/04/10 09:22:42;;;;;;;0.80;0.80;;;9.30;42.10;;;;;;6277415;28;20244;-52
2022/04/10 09:25:44;;;;;;;0.90;0.90;;;9.60;37.60;;;;;;6167283;28;20196;-55
2022/04/10 09:28:49;;;;;;;1.30;0.90;;;9.80;36.30;;;;;;6199715;28;20281;-55
2022/04/10 09:31:51;;;;;;;0.93;0.90;;;9.80;36.60;;;;;;6289306;28;20232;-53
2022/04/10 09:34:56;;;;;;;0.93;0.80;;;9.80;34.90;;;;;;6291256;28;20197;-55
2022/04/10 09:37:58;;;;;;;2.53;1.27;;;9.80;37.10;;;;;;6292295;28;20192;-52
2022/04/10 09:41:13;;;;;;;2.53;1.50;;;9.90;39.80;;;;;;6307634;28;20200;-54
2022/04/10 09:44:22;;;;;;;0.80;0.80;;;10.00;42.90;;;;;;6306447;28;20200;-55
2022/04/10 09:47:25;;;;;;;0.80;0.70;;;10.00;40.20;;;;;;6270950;28;20286;-51
2022/04/10 09:50:33;;;;;;;2.00;0.70;;;10.20;39.90;;;;;;6291620;28;20221;-52
2022/04/10 09:53:34;;;;;;;3.10;1.00;;;10.30;37.80;;;;;;6286264;28;20194;-54
2022/04/10 09:56:37;;;;;;;5.23;1.20;;;10.20;36.10;;;;;;6265567;28;20204;-53
2022/04/10 09:59:49;;;;;;;1.30;1.20;;;10.10;36.80;;;;;;6299595;28;20204;-53
2022/04/10 10:02:50;;;;;;;1.57;1.00;;;10.10;37.30;;;;;;6278420;28;20204;-53
2022/04/10 10:05:53;;;;;;;1.13;1.03;;;10.10;41.00;;;;;;6281301;28;20215;-52
2022/04/10 10:08:54;;;;;;;1.57;1.00;;;10.20;37.20;;;;;;6299290;28;20189;-51
2022/04/10 10:11:56;;;;;;;2.37;1.07;;;10.30;38.10;;;;;;6288023;28;20208;-52
2022/04/10 10:14:57;;;;;;;1.00;0.90;;;10.40;40.40;;;;;;6290585;28;20180;-50
2022/04/10 10:18:00;;;;;;;1.50;1.00;;;10.50;36.80;;;;;;6282441;28;20189;-52
2022/04/10 10:21:02;;;;;;;1.67;1.00;;;10.60;34.40;;;;;;6283333;28;20276;-51
2022/04/10 10:24:04;;;;;;;3.37;1.07;;;10.60;37.10;;;;;;6281792;28;20205;-52
2022/04/10 10:27:47;;;;;;;1.37;1.00;;;10.70;39.20;;;;;;6281898;28;20197;-54
2022/04/10 10:31:13;;;;;;;0.90;0.90;;;10.80;39.20;;;;;;6270277;28;20276;-54
2022/04/10 10:34:14;;;;;;;1.23;0.97;;;11.00;37.40;;;;;;6280479;28;20198;-53
2022/04/10 10:37:16;;;;;;;1.03;0.87;;;10.80;33.20;;;;;;6270707;28;20196;-50
2022/04/10 10:40:20;;;;;;;0.83;0.83;;;10.80;37.00;;;;;;6291175;28;20200;-53
2022/04/10 10:43:24;;;;;;;1.00;1.00;;;10.80;37.20;;;;;;6279352;28;20225;-53
2022/04/10 10:46:33;;;;;;;1.00;0.67;;;10.60;34.00;;;;;;6281758;28;20194;-52
2022/04/10 10:49:47;;;;;;;1.00;1.00;;;10.50;34.30;;;;;;6274812;28;20205;-51
2022/04/10 10:53:07;;;;;;;0.73;0.73;;;10.30;34.40;;;;;;6265281;28;20266;-54
2022/04/10 10:56:27;;;;;;;0.70;0.70;;;10.30;33.70;;;;;;6265801;28;20197;-54
2022/04/10 10:59:34;;;;;;;1.30;1.20;;;10.40;37.00;;;;;;6296532;28;20189;-55
2022/04/10 11:02:36;;;;;;;1.67;1.10;;;10.50;36.70;;;;;;6288324;28;20250;-53
2022/04/10 11:05:38;;;;;;;1.23;0.73;;;10.70;35.10;;;;;;6263838;28;20197;-52
2022/04/10 11:08:39;;;;;;;0.80;0.80;;;10.80;36.90;;;;;;6279933;28;20192;-54
2022/04/10 11:11:40;;;;;;;0.80;0.80;;;10.90;38.40;;;;;;6264446;28;20217;-55
2022/04/10 11:14:45;;;;;;;1.13;0.73;;;11.10;36.20;;;;;;6286171;28;20188;-53
2022/04/10 11:17:47;;;;;;;0.40;0.40;;;11.30;36.40;;;;;;6304730;28;20188;-54
2022/04/10 11:21:04;;;;;;;0.63;0.60;;;11.50;36.50;;;;;;6270365;28;20197;-54
2022/04/10 11:24:08;;;;;;;1.03;0.73;;;11.50;35.90;;;;;;6281283;28;20228;-54
2022/04/10 11:27:14;;;;;;;0.70;0.70;;;11.40;35.20;;;;;;6302274;28;20233;-53
2022/04/10 11:30:29;;;;;;;0.80;0.80;;;11.50;37.10;;;;;;6280544;28;20238;-54
2022/04/10 11:33:49;;;;;;;0.70;0.70;;;11.70;35.70;;;;;;6289245;28;20287;-51
2022/04/10 11:36:52;;;;;;;0.70;0.70;;;11.70;35.30;;;;;;6242932;28;20198;-54
2022/04/10 11:39:56;;;;;;;0.90;0.70;;;11.80;32.90;;;;;;6247678;28;20171;-51
2022/04/10 11:42:58;;;;;;;1.43;0.83;;;11.70;33.70;;;;;;6247414;28;20218;-56
2022/04/10 11:46:01;;;;;;;1.20;0.70;;;11.80;35.00;;;;;;6230082;28;20198;-52
2022/04/10 11:49:03;;;;;;;1.23;0.90;;;11.60;32.90;;;;;;6230108;28;20198;-55
2022/04/10 11:52:04;;;;;;;1.30;0.60;;;11.60;33.50;;;;;;6234115;28;20221;-51
2022/04/10 11:55:07;;;;;;;1.30;0.83;;;11.60;33.20;;;;;;6246390;28;20194;-52
2022/04/10 11:58:16;;;;;;;3.40;2.00;;;11.40;31.70;;;;;;6234505;28;20198;-54
2022/04/10 12:01:18;;;;;;;0.93;0.90;;;11.30;31.70;;;;;;6256060;28;20201;-53
2022/04/10 12:04:20;;;;;;;1.20;0.80;;;11.20;32.40;;;;;;6247125;28;20199;-53
2022/04/10 12:07:21;;;;;;;1.27;0.80;;;10.90;32.50;;;;;;6247203;28;20266;-51
2022/04/10 12:10:22;;;;;;;0.80;0.80;;;10.90;33.30;;;;;;6246691;28;20256;-54
2022/04/10 12:13:31;;;;;;;0.90;0.77;;;11.10;35.90;;;;;;6255119;28;20189;-54
2022/04/10 12:16:31;;;;;;;0.60;0.60;;;11.50;34.50;;;;;;6239861;28;20280;-55
2022/04/10 12:19:35;;;;;;;0.63;0.63;;;12.00;33.70;;;;;;6244562;28;20183;-55
2022/04/10 12:22:36;;;;;;;0.90;0.80;;;12.50;32.20;;;;;;6246302;28;20297;-53
2022/04/10 12:25:37;;;;;;;2.70;0.93;;;12.80;31.00;;;;;;6229386;28;20198;-55
2022/04/10 12:28:39;;;;;;;0.70;0.50;;;12.90;30.80;;;;;;6237081;28;20252;-55
2022/04/10 12:31:41;;;;;;;0.60;0.60;;;13.10;30.90;;;;;;6278617;28;20238;-56
2022/04/10 12:34:43;;;;;;;1.10;0.80;;;13.80;30.50;;;;;;6266399;28;20189;-55
2022/04/10 12:38:02;;;;;;;0.77;0.73;;;14.30;30.10;;;;;;6320891;28;20187;-57
2022/04/10 12:41:04;;;;;;;1.40;1.17;;;15.00;28.40;;;;;;6302636;28;20284;-53
2022/04/10 12:44:06;;;;;;;1.77;1.10;;;14.30;28.80;;;;;;6287291;28;20329;-53
2022/04/10 12:47:08;;;;;;;0.60;0.60;;;14.60;30.20;;;;;;6270915;28;20193;-54
2022/04/10 12:50:12;;;;;;;1.20;0.90;;;14.20;31.00;;;;;;6292469;28;20258;-54
2022/04/10 12:53:13;;;;;;;0.70;0.70;;;13.90;32.10;;;;;;6277918;28;20202;-52
2022/04/10 12:56:21;;;;;;;1.00;0.70;;;13.60;35.00;;;;;;6269380;28;20313;-52
2022/04/10 12:59:38;;;;;;;0.50;0.50;;;13.50;33.40;;;;;;6288881;28;20192;-52
2022/04/10 13:02:39;;;;;;;0.83;0.53;;;13.30;33.50;;;;;;6291980;28;20193;-55
2022/04/10 13:06:15;;;;;;;1.10;0.80;;;13.30;34.80;;;;;;6275256;28;20245;-52
2022/04/10 13:09:17;;;;;;;0.80;0.80;;;13.30;34.60;;;;;;6283847;28;20253;-51
2022/04/10 13:12:23;;;;;;;1.13;0.70;;;13.30;34.90;;;;;;6283885;28;20220;-54
2022/04/10 13:15:32;;;;;;;1.43;0.80;;;13.30;35.90;;;;;;6283734;28;20193;-54
2022/04/10 13:18:33;;;;;;;1.77;0.87;;;13.50;35.00;;;;;;6285199;28;20216;-54
2022/04/10 13:21:35;;;;;;;1.23;0.87;;;13.50;34.80;;;;;;6287219;28;20200;-52
2022/04/10 13:24:36;;;;;;;2.20;0.80;;;13.50;33.70;;;;;;6291323;28;20381;-54
2022/04/10 13:27:37;;;;;;;0.50;0.50;;;13.30;34.30;;;;;;6269483;28;20205;-54
2022/04/10 13:30:38;;;;;;;2.70;0.80;;;13.40;36.00;;;;;;6283837;28;20240;-55
2022/04/10 13:33:38;;;;;;;0.87;0.70;;;13.90;33.70;;;;;;6272385;28;20253;-56
2022/04/10 13:36:39;;;;;;;1.10;0.60;;;14.60;33.00;;;;;;6291252;28;20195;-54
2022/04/10 13:39:40;;;;;;;1.70;0.77;;;15.10;31.70;;;;;;6280042;28;20253;-55
2022/04/10 13:42:43;;;;;;;0.53;0.53;;;16.10;30.80;;;;;;6283653;28;20201;-54
2022/04/10 13:45:43;;;;;;;0.60;0.60;;;16.90;30.30;;;;;;6283358;28;20181;-55
2022/04/10 13:48:45;;;;;;;1.10;0.50;;;17.80;27.20;;;;;;6280235;28;20264;-53
2022/04/10 13:51:46;;;;;;;0.80;0.73;;;17.80;25.80;;;;;;6265070;28;20217;-55
2022/04/10 13:54:47;;;;;;;0.70;0.70;;;17.00;26.70;;;;;;6266630;28;20308;-56
2022/04/10 13:57:48;;;;;;;0.67;0.63;;;17.50;26.20;;;;;;6268058;28;20254;-56
2022/04/10 14:00:49;;;;;;;0.60;0.50;;;18.00;27.40;;;;;;6277899;28;20192;-55
2022/04/10 14:03:49;;;;;;;2.03;0.70;;;18.80;26.40;;;;;;6265677;28;20188;-56
2022/04/10 14:06:50;;;;;;;0.50;0.50;;;19.40;25.40;;;;;;6265934;28;20197;-56
2022/04/10 14:09:51;;;;;;;0.77;0.50;;;19.50;25.80;;;;;;6276032;28;20211;-55
2022/04/10 14:12:52;;;;;;;0.63;0.43;;;20.00;25.60;;;;;;6281283;28;20245;-56
2022/04/10 14:15:52;;;;;;;1.17;0.53;;;20.20;24.50;;;;;;6281794;28;20251;-54
2022/04/10 14:18:53;;;;;;;0.47;0.47;;;19.60;25.30;;;;;;6287215;28;20188;-55
2022/04/10 14:21:54;;;;;;;0.60;0.60;;;20.00;25.40;;;;;;6303103;28;20195;-55
2022/04/10 14:24:55;;;;;;;0.60;0.60;;;20.10;24.10;;;;;;6266200;28;20190;-55
2022/04/10 14:27:56;;;;;;;0.87;0.70;;;19.30;25.00;;;;;;6265317;28;20196;-53
2022/04/10 14:30:57;;;;;;;0.93;0.60;;;18.80;25.60;;;;;;6234708;28;20264;-49
2022/04/10 14:34:03;;;;;;;0.53;0.53;;;18.10;25.10;;;;;;6248554;28;20190;-55
2022/04/10 14:37:04;;;;;;;0.40;0.40;;;17.40;26.30;;;;;;6232701;28;20207;-56
2022/04/10 14:40:05;;;;;;;0.70;0.70;;;16.90;26.40;;;;;;6231217;28;20190;-55
2022/04/10 14:43:06;;;;;;;0.43;0.43;;;16.40;28.20;;;;;;6248519;28;20175;-54
2022/04/10 14:46:07;;;;;;;0.50;0.50;;;16.10;27.70;;;;;;6273291;28;20208;-56
2022/04/10 14:49:07;;;;;;;2.03;0.60;;;16.20;29.10;;;;;;6237591;28;20272;-56
2022/04/10 14:52:09;;;;;;;1.53;0.50;;;16.40;26.20;;;;;;6250424;28;20249;-56
2022/04/10 14:55:10;;;;;;;0.87;0.53;;;16.60;27.60;;;;;;6246657;28;20187;-52
2022/04/10 14:58:10;;;;;;;0.57;0.57;;;16.30;28.30;;;;;;6236656;28;20270;-52
2022/04/10 15:01:11;;;;;;;0.60;0.60;;;15.60;28.20;;;;;;6222272;28;20497;-55
2022/04/10 15:04:12;;;;;;;0.80;0.80;;;14.50;29.10;;;;;;6256734;28;20190;-55
2022/04/10 15:07:13;;;;;;;0.53;0.50;;;13.50;31.00;;;;;;6256380;28;20215;-54
2022/04/10 15:10:14;;;;;;;0.67;0.63;;;13.10;32.30;;;;;;6247404;28;20293;-54
2022/04/10 15:13:15;;;;;;;1.20;0.50;;;12.80;32.50;;;;;;6231572;28;20190;-55
2022/04/10 15:16:16;;;;;;;0.87;0.70;;;12.90;31.50;;;;;;6230284;28;20194;-56
2022/04/10 15:19:17;;;;;;;0.60;0.50;;;13.60;33.70;;;;;;6231532;28;20275;-55
2022/04/10 15:22:18;;;;;;;1.17;0.80;;;14.20;32.90;;;;;;6249956;28;20289;-52
2022/04/10 15:25:19;;;;;;;0.83;0.70;;;14.50;32.60;;;;;;6240302;28;20213;-52
2022/04/10 15:28:20;;;;;;;1.90;1.17;;;14.30;31.40;;;;;;6249688;28;20199;-55
2022/04/10 15:31:23;;;;;;;2.20;1.20;;;14.20;33.50;;;;;;6282201;28;20225;-52
2022/04/10 15:34:25;;;;;;;1.40;0.67;;;14.40;31.00;;;;;;6289345;28;20216;-53
2022/04/10 15:37:26;;;;;;;2.37;1.07;;;14.70;30.50;;;;;;6278766;28;20244;-56
2022/04/10 15:40:27;;;;;;;0.57;0.57;;;15.10;30.90;;;;;;6282032;28;20178;-57
2022/04/10 15:43:29;;;;;;;0.70;0.63;;;15.30;31.20;;;;;;6279212;28;20193;-54
2022/04/10 15:46:30;;;;;;;0.90;0.67;;;15.60;30.60;;;;;;6282275;28;20186;-52
2022/04/10 15:49:31;;;;;;;1.17;0.90;;;15.60;31.70;;;;;;6279916;28;20188;-51
2022/04/10 15:52:31;;;;;;;1.60;0.60;;;15.50;30.30;;;;;;6289165;28;20224;-52
2022/04/10 15:55:32;;;;;;;2.47;0.60;;;15.40;30.20;;;;;;6260074;28;20194;-52
2022/04/10 15:58:33;;;;;;;0.47;0.47;;;14.80;30.00;;;;;;6298693;28;20188;-51
2022/04/10 16:01:34;;;;;;;1.00;0.70;;;14.50;30.90;;;;;;6305271;28;20206;-50
2022/04/10 16:04:35;;;;;;;1.17;0.70;;;14.30;30.90;;;;;;6266328;28;20181;-51
2022/04/10 16:07:36;;;;;;;1.47;0.60;;;14.00;30.90;;;;;;6303239;28;20206;-55